Time;durP1;ratioP1;P1;durP2;ratioP2;P2;SDS_P1;SDS_P2;PMS_P1;PMS_P2;Temp;Humidity;BMP_temperature;BMP_pressure;BME280_temperature;BME280_humidity;BME280_pressure;Samples;Min_cycle;Max_cycle;Signal;HPM_P1;HPM_P2
2022/05/11 00:04:44;;;;;;;8.75;3.38;;;13.80;99.90;;;;;;5459951;23;20065;-74
2022/05/11 00:07:10;;;;;;;8.25;3.50;;;13.80;99.90;;;;;;4978354;28;20059;-75
2022/05/11 00:09:36;;;;;;;10.10;3.58;;;13.80;99.90;;;;;;4980233;28;20054;-74
2022/05/11 00:12:02;;;;;;;10.63;4.18;;;13.80;99.90;;;;;;4975162;28;20042;-75
2022/05/11 00:14:28;;;;;;;8.82;3.28;;;13.80;99.90;;;;;;4956845;28;20431;-75
2022/05/11 00:16:56;;;;;;;11.60;3.63;;;13.80;99.90;;;;;;4973819;28;20055;-74
2022/05/11 00:19:22;;;;;;;12.77;3.80;;;13.80;99.90;;;;;;4957815;28;20047;-75
2022/05/11 00:21:48;;;;;;;10.00;4.00;;;13.80;99.90;;;;;;4956299;28;20090;-74
2022/05/11 00:24:13;;;;;;;10.73;3.63;;;13.80;99.90;;;;;;4957326;28;20042;-75
2022/05/11 00:26:39;;;;;;;7.97;3.53;;;13.80;99.90;;;;;;4972340;28;20118;-74
2022/05/11 00:29:05;;;;;;;8.35;3.03;;;13.80;99.90;;;;;;4973010;28;20138;-75
2022/05/11 00:31:30;;;;;;;9.48;3.13;;;13.80;99.90;;;;;;4972690;28;20055;-75
2022/05/11 00:33:56;;;;;;;10.45;3.50;;;13.80;99.90;;;;;;4972518;28;20068;-75
2022/05/11 00:36:22;;;;;;;7.10;3.17;;;13.80;99.90;;;;;;4973725;28;20081;-75
2022/05/11 00:38:48;;;;;;;13.43;3.90;;;13.80;99.90;;;;;;4972116;28;20042;-74
2022/05/11 00:41:13;;;;;;;9.48;3.65;;;13.70;99.90;;;;;;4972832;28;20054;-74
2022/05/11 00:43:43;;;;;;;13.18;3.38;;;13.70;99.90;;;;;;4972117;28;20054;-75
2022/05/11 00:46:15;;;;;;;9.27;3.78;;;13.70;99.90;;;;;;4969922;28;20512;-74
2022/05/11 00:51:32;;;;;;;;;;;13.60;99.90;;;;;;4972973;28;20105;-75
2022/05/11 00:53:58;;;;;;;11.25;3.53;;;13.60;99.90;;;;;;4972113;28;20008;-75
2022/05/11 00:56:24;;;;;;;7.50;3.17;;;13.60;99.90;;;;;;4988028;28;20050;-75
2022/05/11 00:59:06;;;;;;;13.27;3.80;;;13.60;99.90;;;;;;4972017;28;20173;-75
2022/05/11 01:01:32;;;;;;;11.77;3.40;;;13.60;99.90;;;;;;4971091;28;20289;-75
2022/05/11 01:04:10;;;;;;;7.17;3.27;;;13.60;99.90;;;;;;4971870;28;20058;-75
2022/05/11 01:06:37;;;;;;;8.98;3.58;;;13.60;99.90;;;;;;4971996;28;20538;-75
2022/05/11 01:09:05;;;;;;;9.73;4.20;;;13.60;99.90;;;;;;4972755;28;20090;-75
2022/05/11 01:11:36;;;;;;;11.43;3.50;;;13.60;99.90;;;;;;4955868;28;20062;-73
2022/05/11 01:14:03;;;;;;;9.55;3.80;;;13.60;99.90;;;;;;4972045;28;20070;-76
2022/05/11 01:16:30;;;;;;;11.00;4.00;;;13.60;99.90;;;;;;4972201;28;20335;-74
2022/05/11 01:18:59;;;;;;;11.23;4.10;;;13.60;99.90;;;;;;4974607;28;20054;-76
2022/05/11 01:21:36;;;;;;;8.60;3.65;;;13.50;99.90;;;;;;4981156;28;20035;-75
2022/05/11 01:24:22;;;;;;;13.88;4.13;;;13.60;99.90;;;;;;4973065;28;20053;-74
2022/05/11 01:26:48;;;;;;;13.55;4.20;;;13.60;99.90;;;;;;4972964;28;20039;-75
2022/05/11 01:29:14;;;;;;;12.35;3.58;;;13.60;99.90;;;;;;4956296;28;20062;-75
2022/05/11 01:31:45;;;;;;;20.98;5.45;;;13.60;99.90;;;;;;4985994;28;20486;-75
2022/05/11 01:34:18;;;;;;;7.57;3.15;;;13.60;99.90;;;;;;4973215;28;20051;-74
2022/05/11 01:36:48;;;;;;;9.40;3.90;;;13.70;99.90;;;;;;4961857;28;20059;-74
2022/05/11 01:39:14;;;;;;;9.60;3.60;;;13.70;99.90;;;;;;4952951;28;20483;-74
2022/05/11 01:41:50;;;;;;;11.65;3.65;;;13.70;99.90;;;;;;4942767;28;20126;-75
2022/05/11 01:44:19;;;;;;;8.27;3.70;;;13.70;99.90;;;;;;4956242;28;20054;-74
2022/05/11 01:46:48;;;;;;;9.35;3.65;;;13.70;99.90;;;;;;4970472;28;20113;-75
2022/05/11 01:49:14;;;;;;;10.23;3.53;;;13.80;99.90;;;;;;4971762;28;20066;-74
2022/05/11 01:51:40;;;;;;;9.55;4.10;;;13.80;99.90;;;;;;4972471;28;20106;-74
2022/05/11 01:54:07;;;;;;;13.63;4.07;;;13.80;99.90;;;;;;4971887;28;20474;-73
2022/05/11 01:56:32;;;;;;;9.48;3.30;;;13.70;99.90;;;;;;4973105;28;20050;-74
2022/05/11 01:58:58;;;;;;;9.38;3.25;;;13.70;99.90;;;;;;4978341;28;20102;-75
2022/05/11 02:01:27;;;;;;;11.38;3.65;;;13.70;99.90;;;;;;4975905;28;20046;-74
2022/05/11 02:03:53;;;;;;;7.82;2.92;;;13.70;99.90;;;;;;4977339;28;20137;-76
2022/05/11 02:09:05;;;;;;;10.48;3.30;;;13.70;99.90;;;;;;4977364;28;20051;-75
2022/05/11 02:11:31;;;;;;;13.07;3.67;;;13.70;99.90;;;;;;4976182;28;20046;-75
2022/05/11 02:13:58;;;;;;;8.60;3.08;;;13.70;99.90;;;;;;4960459;28;20134;-75
2022/05/11 02:16:25;;;;;;;7.35;3.20;;;13.70;99.90;;;;;;4977639;28;20140;-74
2022/05/11 02:18:51;;;;;;;12.77;4.03;;;13.70;99.90;;;;;;4978349;28;20046;-75
2022/05/11 02:21:18;;;;;;;6.75;3.15;;;13.70;99.90;;;;;;4992106;28;20039;-75
2022/05/11 02:23:43;;;;;;;14.50;3.47;;;13.70;99.90;;;;;;4977141;28;20046;-75
2022/05/11 02:26:11;;;;;;;9.45;3.80;;;13.70;99.90;;;;;;4976285;28;20058;-75
2022/05/11 02:28:38;;;;;;;11.63;3.55;;;13.70;99.90;;;;;;4976384;28;20053;-75
2022/05/11 02:31:04;;;;;;;11.35;3.22;;;13.70;99.90;;;;;;4977357;28;20082;-74
2022/05/11 02:33:30;;;;;;;9.77;2.90;;;13.70;99.90;;;;;;4977416;28;20379;-74
2022/05/11 02:35:56;;;;;;;11.23;3.28;;;13.70;99.90;;;;;;4959182;28;20082;-74
2022/05/11 02:38:25;;;;;;;8.10;3.13;;;13.70;99.90;;;;;;4943155;28;20149;-74
2022/05/11 02:40:51;;;;;;;10.40;3.05;;;13.70;99.90;;;;;;4974602;28;20058;-74
2022/05/11 02:43:17;;;;;;;8.20;3.07;;;13.70;99.90;;;;;;4958449;28;20043;-75
2022/05/11 02:45:44;;;;;;;8.52;3.00;;;13.70;99.90;;;;;;4973896;28;20354;-74
2022/05/11 02:48:12;;;;;;;;;;;13.70;99.90;;;;;;4974832;28;20086;-73
2022/05/11 02:50:41;;;;;;;10.20;3.20;;;13.70;99.90;;;;;;4974671;28;19926;-74
2022/05/11 02:53:08;;;;;;;10.23;3.53;;;13.70;99.90;;;;;;4975220;28;20141;-74
2022/05/11 02:55:39;;;;;;;11.33;3.47;;;13.70;99.90;;;;;;4974668;28;20066;-74
2022/05/11 02:58:05;;;;;;;10.95;3.03;;;13.70;99.90;;;;;;4975012;28;20050;-74
2022/05/11 03:00:31;;;;;;;13.57;3.60;;;13.70;99.90;;;;;;4973001;28;20494;-74
2022/05/11 03:02:59;;;;;;;13.18;3.08;;;13.70;99.90;;;;;;4974584;28;20051;-74
2022/05/11 03:05:24;;;;;;;11.50;3.45;;;13.70;99.90;;;;;;4974537;28;20083;-75
2022/05/11 03:07:50;;;;;;;10.07;3.60;;;13.70;99.90;;;;;;4976940;28;20101;-74
2022/05/11 03:10:16;;;;;;;9.13;3.30;;;13.70;99.90;;;;;;4979731;28;20050;-75
2022/05/11 03:12:42;;;;;;;8.95;3.70;;;13.70;99.90;;;;;;4961680;28;20078;-72
2022/05/11 03:15:09;;;;;;;9.82;3.30;;;13.70;99.90;;;;;;4964592;28;20044;-73
2022/05/11 03:17:35;;;;;;;9.75;3.22;;;13.70;99.90;;;;;;4958484;29;20050;-73
2022/05/11 03:20:03;;;;;;;10.17;3.30;;;13.70;99.90;;;;;;4959103;28;20134;-73
2022/05/11 03:22:28;;;;;;;10.40;3.47;;;13.70;99.90;;;;;;4957254;29;20821;-73
2022/05/11 03:24:54;;;;;;;10.63;3.50;;;13.70;99.90;;;;;;4956438;29;20043;-74
2022/05/11 03:27:20;;;;;;;11.00;3.28;;;13.70;99.90;;;;;;4956895;28;20073;-74
2022/05/11 03:29:47;;;;;;;10.70;3.45;;;13.70;99.90;;;;;;4956483;28;20047;-75
2022/05/11 03:34:58;;;;;;;12.65;3.72;;;13.70;99.90;;;;;;4955723;28;20053;-75
2022/05/11 03:37:23;;;;;;;9.05;3.60;;;13.70;99.90;;;;;;4954283;29;20148;-75
2022/05/11 03:39:49;;;;;;;11.82;3.33;;;13.60;99.90;;;;;;4955640;28;20067;-75
2022/05/11 03:42:18;;;;;;;9.50;3.60;;;13.70;99.90;;;;;;4953954;28;20039;-74
2022/05/11 03:44:45;;;;;;;9.25;3.20;;;13.60;99.90;;;;;;4953008;29;20395;-75
2022/05/11 03:47:11;;;;;;;9.18;3.55;;;13.60;99.90;;;;;;4955128;28;20511;-75
2022/05/11 03:49:37;;;;;;;13.52;3.80;;;13.60;99.90;;;;;;4955310;28;20074;-75
2022/05/11 03:52:04;;;;;;;12.52;3.60;;;13.60;99.90;;;;;;4954492;29;20138;-75
2022/05/11 03:54:29;;;;;;;;;;;13.60;99.90;;;;;;4938198;29;20058;-76
2022/05/11 03:56:55;;;;;;;14.90;3.77;;;13.60;99.90;;;;;;4954183;28;19930;-74
2022/05/11 03:59:21;;;;;;;12.68;3.63;;;13.60;99.90;;;;;;4953305;29;20051;-74
2022/05/11 04:01:47;;;;;;;11.25;3.38;;;13.60;99.90;;;;;;4968499;28;20075;-75
2022/05/11 04:04:12;;;;;;;13.20;4.20;;;13.60;99.90;;;;;;4954399;28;20055;-75
2022/05/11 04:06:38;;;;;;;10.82;3.45;;;13.60;99.90;;;;;;4954556;28;20051;-75
2022/05/11 04:09:04;;;;;;;10.55;3.53;;;13.60;99.90;;;;;;4954878;28;20098;-75
2022/05/11 04:11:30;;;;;;;13.55;3.40;;;13.60;99.90;;;;;;4953635;28;20519;-76
2022/05/11 04:13:57;;;;;;;12.75;3.60;;;13.70;99.90;;;;;;4954116;29;20061;-75
2022/05/11 04:16:24;;;;;;;12.20;3.88;;;13.70;99.90;;;;;;4967954;28;20051;-75
2022/05/11 04:18:50;;;;;;;11.93;4.03;;;13.70;99.90;;;;;;4937529;29;20137;-74
2022/05/11 04:21:16;;;;;;;11.95;3.65;;;13.70;99.90;;;;;;4952902;29;20122;-76
2022/05/11 04:23:41;;;;;;;11.02;4.35;;;13.70;99.90;;;;;;4938494;29;20479;-75
2022/05/11 04:26:09;;;;;;;11.25;3.47;;;13.70;99.90;;;;;;4953137;28;20166;-75
2022/05/11 04:28:35;;;;;;;9.13;3.35;;;13.70;99.90;;;;;;4954084;28;20205;-75
2022/05/11 04:31:06;;;;;;;11.50;3.85;;;13.70;99.90;;;;;;4953567;28;20125;-74
2022/05/11 04:33:32;;;;;;;10.38;3.20;;;13.70;99.90;;;;;;4954263;28;20326;-75
2022/05/11 04:35:58;;;;;;;13.90;4.78;;;13.80;99.90;;;;;;4959397;28;20077;-75
2022/05/11 04:38:23;;;;;;;13.07;3.90;;;13.80;99.90;;;;;;4973904;28;20074;-77
2022/05/11 04:40:49;;;;;;;13.27;4.25;;;13.80;99.90;;;;;;4973934;28;20046;-75
2022/05/11 04:43:15;;;;;;;13.60;4.60;;;13.80;99.90;;;;;;4974955;28;20097;-75
2022/05/11 04:45:44;;;;;;;12.55;5.18;;;13.90;99.90;;;;;;4973007;28;20407;-75
2022/05/11 04:48:10;;;;;;;14.75;5.80;;;13.90;99.90;;;;;;4973008;28;20054;-75
2022/05/11 04:50:38;;;;;;;12.73;6.22;;;13.90;99.90;;;;;;4973549;28;20046;-75
2022/05/11 04:53:05;;;;;;;19.60;7.90;;;14.00;99.90;;;;;;4957280;28;20050;-75
2022/05/11 04:55:31;;;;;;;17.67;7.28;;;14.00;99.90;;;;;;4973541;28;20050;-76
2022/05/11 04:57:57;;;;;;;21.23;9.25;;;14.00;99.90;;;;;;4973577;28;20058;-75
2022/05/11 05:00:25;;;;;;;24.50;9.30;;;14.00;99.90;;;;;;4971760;28;20059;-74
2022/05/11 05:02:51;;;;;;;28.42;9.30;;;14.00;99.90;;;;;;4972577;28;20101;-74
2022/05/11 05:05:19;;;;;;;21.92;9.68;;;14.10;99.90;;;;;;4971644;28;20058;-75
2022/05/11 05:07:45;;;;;;;22.40;9.02;;;14.10;99.90;;;;;;4956327;28;20050;-75
2022/05/11 05:10:13;;;;;;;21.95;7.82;;;14.20;99.90;;;;;;4973832;28;20050;-73
2022/05/11 05:12:48;;;;;;;16.90;6.55;;;14.20;99.90;;;;;;4972108;28;20081;-75
2022/05/11 05:15:16;;;;;;;16.83;6.88;;;14.30;99.90;;;;;;4961685;28;20082;-74
2022/05/11 05:17:42;;;;;;;14.10;6.03;;;14.40;99.90;;;;;;4937421;29;20062;-75
2022/05/11 05:20:11;;;;;;;12.93;5.70;;;14.40;99.90;;;;;;4953213;28;20083;-76
2022/05/11 05:22:37;;;;;;;13.38;4.65;;;14.50;99.90;;;;;;4952217;29;20054;-75
2022/05/11 05:25:04;;;;;;;11.13;4.55;;;14.50;99.90;;;;;;4953065;28;20443;-76
2022/05/11 05:27:29;;;;;;;11.05;4.20;;;14.70;99.90;;;;;;4952942;28;20134;-75
2022/05/11 05:32:43;;;;;;;12.27;4.85;;;14.60;99.90;;;;;;4944386;29;20059;-75
2022/05/11 05:35:13;;;;;;;15.05;4.30;;;14.60;99.90;;;;;;4958968;28;20057;-74
2022/05/11 05:37:39;;;;;;;11.65;4.40;;;14.80;99.90;;;;;;4958722;29;20086;-74
2022/05/11 05:40:06;;;;;;;14.45;3.90;;;14.90;99.90;;;;;;4958217;28;20078;-73
2022/05/11 05:42:32;;;;;;;16.20;4.30;;;15.00;99.90;;;;;;4957152;28;20376;-75
2022/05/11 05:44:58;;;;;;;8.38;3.92;;;15.10;99.90;;;;;;4955752;29;20063;-73
2022/05/11 05:47:24;;;;;;;10.63;4.63;;;15.20;99.90;;;;;;4940447;29;20595;-76
2022/05/11 05:49:50;;;;;;;14.45;4.45;;;15.20;99.90;;;;;;4957553;28;20054;-75
2022/05/11 05:52:21;;;;;;;10.68;3.88;;;15.30;99.90;;;;;;4957741;28;20039;-75
2022/05/11 05:54:47;;;;;;;13.02;4.07;;;15.20;99.90;;;;;;4940594;29;20055;-75
2022/05/11 05:57:17;;;;;;;16.02;4.15;;;15.30;99.90;;;;;;4939868;29;20406;-73
2022/05/11 05:59:45;;;;;;;11.75;4.25;;;15.30;99.90;;;;;;4970508;28;20069;-76
2022/05/11 06:02:14;;;;;;;10.35;4.13;;;15.30;99.90;;;;;;4956404;28;20182;-74
2022/05/11 06:04:41;;;;;;;16.02;4.85;;;15.40;99.90;;;;;;4966825;28;20063;-75
2022/05/11 06:07:07;;;;;;;11.38;4.00;;;15.40;99.90;;;;;;4977878;28;20062;-75
2022/05/11 06:09:33;;;;;;;10.13;3.97;;;15.50;99.90;;;;;;4977375;28;20050;-74
2022/05/11 06:11:59;;;;;;;10.15;3.83;;;15.60;99.90;;;;;;4977337;28;20064;-74
2022/05/11 06:14:25;;;;;;;11.60;4.05;;;15.60;99.90;;;;;;4960364;28;20084;-73
2022/05/11 06:16:53;;;;;;;17.48;4.80;;;15.70;99.90;;;;;;4975071;28;20051;-75
2022/05/11 06:19:20;;;;;;;12.88;4.15;;;15.70;99.90;;;;;;4959958;28;20050;-74
2022/05/11 06:21:47;;;;;;;11.43;3.78;;;15.90;99.90;;;;;;4991553;28;20051;-73
2022/05/11 06:24:14;;;;;;;12.18;3.63;;;15.90;99.90;;;;;;4975238;28;20564;-75
2022/05/11 06:26:41;;;;;;;10.60;3.67;;;16.00;99.90;;;;;;4976310;28;20130;-74
2022/05/11 06:29:07;;;;;;;10.90;3.75;;;16.00;99.90;;;;;;4976029;28;20137;-75
2022/05/11 06:31:33;;;;;;;10.43;3.53;;;16.10;99.90;;;;;;4975063;28;20138;-73
2022/05/11 06:33:58;;;;;;;11.85;2.90;;;16.20;99.90;;;;;;4991669;28;20073;-75
2022/05/11 06:36:25;;;;;;;8.70;2.90;;;16.40;99.90;;;;;;4967827;28;20047;-74
2022/05/11 06:38:52;;;;;;;8.90;2.90;;;16.60;99.90;;;;;;4924947;29;20118;-74
2022/05/11 06:41:20;;;;;;;10.10;2.65;;;16.60;99.90;;;;;;4959337;28;20046;-75
2022/05/11 06:43:46;;;;;;;8.55;2.38;;;16.80;99.90;;;;;;4974063;28;20195;-75
2022/05/11 06:46:13;;;;;;;12.45;2.63;;;17.10;99.90;;;;;;4957952;28;20062;-73
2022/05/11 06:48:39;;;;;;;10.13;2.10;;;17.30;99.90;;;;;;4975951;28;20343;-74
2022/05/11 06:51:04;;;;;;;10.65;2.35;;;17.40;99.90;;;;;;4976829;28;20053;-74
2022/05/11 06:59:20;;;;;;;12.07;1.90;;;17.60;99.90;;;;;;4975830;28;20049;-74
2022/05/11 06:59:22;;;;;;;6.00;1.50;;;18.00;99.90;;;;;;4974951;28;20054;-74
2022/05/11 07:01:49;;;;;;;6.47;1.30;;;18.10;99.90;;;;;;4973194;28;20062;-75
2022/05/11 07:04:15;;;;;;;8.63;1.20;;;18.30;99.90;;;;;;4974781;28;20059;-75
2022/05/11 07:06:41;;;;;;;7.10;1.50;;;18.40;99.90;;;;;;4975603;28;20055;-76
2022/05/11 07:09:07;;;;;;;4.23;1.07;;;18.40;99.80;;;;;;4990717;28;20523;-73
2022/05/11 07:14:17;;;;;;;6.15;1.33;;;18.30;99.10;;;;;;4972391;28;20086;-75
2022/05/11 07:16:43;;;;;;;10.23;1.00;;;18.50;99.90;;;;;;4953421;29;20099;-75
2022/05/11 07:19:09;;;;;;;6.20;0.87;;;18.50;98.90;;;;;;4954939;29;20051;-73
2022/05/11 07:21:35;;;;;;;9.32;1.10;;;18.70;99.30;;;;;;4954075;29;20086;-74
2022/05/11 07:24:01;;;;;;;8.90;1.30;;;19.10;98.70;;;;;;4954762;29;20380;-73
2022/05/11 07:26:27;;;;;;;7.20;1.20;;;19.40;96.70;;;;;;4938825;29;20055;-73
2022/05/11 07:28:52;;;;;;;6.07;1.00;;;19.30;95.10;;;;;;4956282;28;20051;-75
2022/05/11 07:31:18;;;;;;;11.67;1.30;;;19.50;95.60;;;;;;4953709;29;20043;-74
2022/05/11 07:33:47;;;;;;;7.20;1.13;;;19.70;94.10;;;;;;4956489;28;20047;-74
2022/05/11 07:36:12;;;;;;;6.83;0.87;;;19.70;93.70;;;;;;4955146;29;20454;-76
2022/05/11 07:38:40;;;;;;;8.27;0.90;;;19.70;92.50;;;;;;4954631;29;20087;-73
2022/05/11 07:41:07;;;;;;;10.90;1.00;;;19.80;92.50;;;;;;4956549;29;20118;-74
2022/05/11 07:43:33;;;;;;;6.30;1.20;;;19.80;92.40;;;;;;4956665;29;20082;-76
2022/05/11 07:45:59;;;;;;;6.72;0.60;;;19.70;92.60;;;;;;4955452;29;20379;-74
2022/05/11 07:48:25;;;;;;;8.60;0.85;;;19.60;90.40;;;;;;4957178;28;20555;-75
2022/05/11 07:50:51;;;;;;;6.00;0.80;;;19.40;91.20;;;;;;4955073;28;20598;-75
2022/05/11 07:53:17;;;;;;;8.23;0.80;;;19.40;91.70;;;;;;4954218;28;20047;-75
2022/05/11 07:55:43;;;;;;;6.07;0.73;;;19.40;92.10;;;;;;4953569;29;20055;-75
2022/05/11 08:00:59;;;;;;;4.35;0.50;;;19.10;91.10;;;;;;4954852;28;20051;-76
2022/05/11 08:03:24;;;;;;;5.78;0.50;;;18.90;91.00;;;;;;4925068;28;20062;-76
2022/05/11 08:05:51;;;;;;;9.80;0.90;;;18.80;91.10;;;;;;4973145;28;20059;-76
2022/05/11 08:08:17;;;;;;;8.55;0.70;;;18.70;91.10;;;;;;4974804;28;20490;-75
2022/05/11 08:10:46;;;;;;;9.82;1.42;;;18.70;91.80;;;;;;4972931;28;20046;-74
2022/05/11 08:13:14;;;;;;;9.35;0.70;;;18.70;91.20;;;;;;4973984;28;20104;-77
2022/05/11 08:15:50;;;;;;;9.40;1.70;;;18.80;91.60;;;;;;4957869;28;20066;-75
2022/05/11 08:18:18;;;;;;;6.60;0.60;;;19.10;90.70;;;;;;4974370;28;20043;-75
2022/05/11 08:20:46;;;;;;;5.18;0.68;;;19.30;91.10;;;;;;4973831;28;20047;-75
2022/05/11 08:23:13;;;;;;;8.05;0.63;;;19.30;89.90;;;;;;4974310;28;20364;-75
2022/05/11 08:25:42;;;;;;;5.00;0.47;;;19.30;90.20;;;;;;4973240;28;20054;-73
2022/05/11 08:28:11;;;;;;;6.18;0.70;;;19.40;90.30;;;;;;4974586;28;20078;-75
2022/05/11 08:33:26;;;;;;;6.82;0.77;;;19.20;90.30;;;;;;4975664;28;20132;-74
2022/05/11 08:35:59;;;;;;;6.63;0.90;;;19.40;90.00;;;;;;4974185;28;20132;-76
2022/05/11 08:38:32;;;;;;;6.70;0.70;;;19.40;90.40;;;;;;4959178;28;20075;-75
2022/05/11 08:41:37;;;;;;;5.43;0.90;;;19.50;90.70;;;;;;4960563;28;20390;-74
2022/05/11 08:44:11;;;;;;;6.72;0.80;;;19.70;88.80;;;;;;4976466;28;20047;-74
2022/05/11 08:46:42;;;;;;;10.30;0.70;;;19.70;88.00;;;;;;4974987;28;20065;-74
2022/05/11 08:49:17;;;;;;;7.97;1.33;;;19.60;87.20;;;;;;4974176;28;20046;-74
2022/05/11 08:52:04;;;;;;;7.50;0.77;;;19.50;86.60;;;;;;4974686;28;20055;-74
2022/05/11 08:54:47;;;;;;;7.03;0.75;;;19.60;86.30;;;;;;4974202;28;20078;-76
2022/05/11 08:57:20;;;;;;;6.55;0.68;;;19.80;86.80;;;;;;4973021;28;20046;-75
2022/05/11 08:59:46;;;;;;;7.47;0.93;;;20.00;86.60;;;;;;4973115;28;20098;-75
2022/05/11 09:02:24;;;;;;;6.90;0.80;;;20.10;86.70;;;;;;4973640;28;20375;-73
2022/05/11 09:04:52;;;;;;;9.40;0.90;;;20.10;85.10;;;;;;4973648;28;20627;-75
2022/05/11 09:07:20;;;;;;;7.93;0.65;;;20.10;84.40;;;;;;4942045;28;20117;-74
2022/05/11 09:09:46;;;;;;;11.55;0.80;;;20.10;83.50;;;;;;4975398;28;20458;-72
2022/05/11 09:12:13;;;;;;;5.50;0.47;;;20.10;81.40;;;;;;4974779;28;20053;-72
2022/05/11 09:14:51;;;;;;;7.82;0.80;;;19.90;82.40;;;;;;4973808;28;20081;-75
2022/05/11 09:17:24;;;;;;;8.63;0.80;;;19.90;81.90;;;;;;4975895;28;20047;-75
2022/05/11 09:20:10;;;;;;;4.90;0.70;;;19.80;82.20;;;;;;4975447;28;20137;-76
2022/05/11 09:22:39;;;;;;;10.57;0.95;;;19.80;82.70;;;;;;4982126;28;20047;-73
2022/05/11 09:25:18;;;;;;;11.43;1.02;;;19.70;81.90;;;;;;4960022;28;20161;-75
2022/05/11 09:27:46;;;;;;;6.82;0.70;;;19.80;83.10;;;;;;4980363;28;20096;-75
2022/05/11 09:30:23;;;;;;;7.80;0.70;;;19.80;81.70;;;;;;4956697;28;20512;-74
2022/05/11 09:33:14;;;;;;;6.18;0.52;;;19.90;79.20;;;;;;4973619;28;20549;-72
2022/05/11 09:35:40;;;;;;;4.30;0.52;;;20.00;78.30;;;;;;4959352;28;20070;-75
2022/05/11 09:38:26;;;;;;;7.68;0.60;;;19.90;77.50;;;;;;4973388;28;20046;-76
2022/05/11 09:40:57;;;;;;;4.82;0.60;;;20.00;78.00;;;;;;4956980;28;20051;-75
2022/05/11 09:43:50;;;;;;;4.60;0.55;;;20.10;78.90;;;;;;4975194;28;20039;-73
2022/05/11 09:46:30;;;;;;;7.00;0.93;;;20.10;78.00;;;;;;4973166;28;20050;-75
2022/05/11 09:49:05;;;;;;;5.75;1.00;;;20.10;79.10;;;;;;4973122;28;20055;-75
2022/05/11 09:51:41;;;;;;;8.52;0.50;;;20.10;80.00;;;;;;4975387;28;20054;-74
2022/05/11 09:54:19;;;;;;;6.53;0.50;;;20.20;80.30;;;;;;4976317;28;20061;-77
2022/05/11 09:56:51;;;;;;;3.50;0.40;;;20.30;79.60;;;;;;4973391;28;20565;-74
2022/05/11 09:59:22;;;;;;;7.40;0.50;;;20.30;77.30;;;;;;4973622;28;20054;-72
2022/05/11 10:01:51;;;;;;;7.78;0.60;;;20.40;77.10;;;;;;4971520;28;20078;-74
2022/05/11 10:04:22;;;;;;;4.10;0.73;;;20.40;77.20;;;;;;4963072;28;20106;-74
2022/05/11 10:06:53;;;;;;;3.83;0.47;;;20.50;74.90;;;;;;4954069;29;20055;-74
2022/05/11 10:09:41;;;;;;;3.83;0.40;;;20.40;74.60;;;;;;4953676;29;20047;-73
2022/05/11 10:12:14;;;;;;;6.28;0.43;;;20.40;71.40;;;;;;4954601;28;20513;-74
2022/05/11 10:23:17;;;;;;;5.10;0.50;;;20.40;70.60;;;;;;4956367;29;20047;-74
2022/05/11 10:25:49;;;;;;;7.25;0.60;;;20.50;70.50;;;;;;4972553;28;20511;-75
2022/05/11 10:28:33;;;;;;;5.50;0.30;;;20.50;71.00;;;;;;4958620;28;20059;-73
2022/05/11 10:31:06;;;;;;;6.50;0.60;;;20.50;69.80;;;;;;4955813;28;20051;-75
2022/05/11 10:33:46;;;;;;;6.78;0.35;;;20.50;71.10;;;;;;4972457;28;20051;-73
2022/05/11 10:36:29;;;;;;;8.93;0.50;;;20.50;69.10;;;;;;4940630;29;20109;-74
2022/05/11 10:39:34;;;;;;;5.35;0.50;;;20.60;71.50;;;;;;4957333;28;20043;-72
2022/05/11 10:42:10;;;;;;;5.75;0.50;;;20.60;70.50;;;;;;4930942;28;20055;-76
2022/05/11 10:45:13;;;;;;;9.23;0.50;;;20.70;70.80;;;;;;4976433;28;20054;-74
2022/05/11 10:48:08;;;;;;;6.72;0.45;;;20.60;70.00;;;;;;4976432;28;20051;-74
2022/05/11 10:50:45;;;;;;;9.43;0.80;;;20.80;70.00;;;;;;4976058;28;20050;-73
2022/05/11 10:53:29;;;;;;;4.25;0.60;;;20.90;69.70;;;;;;4991540;28;20043;-75
2022/05/11 10:56:19;;;;;;;3.38;0.32;;;20.90;69.30;;;;;;4975828;28;20047;-74
2022/05/11 10:59:19;;;;;;;12.20;0.52;;;20.90;69.30;;;;;;4991604;28;20047;-75
2022/05/11 11:01:57;;;;;;;2.60;0.40;;;21.00;69.20;;;;;;4974045;28;20324;-75
2022/05/11 11:04:52;;;;;;;6.47;0.43;;;21.10;69.70;;;;;;4976251;28;20054;-73
2022/05/11 11:07:52;;;;;;;4.40;0.50;;;21.20;68.30;;;;;;4979951;28;20059;-75
2022/05/11 11:10:48;;;;;;;6.70;0.40;;;21.20;67.20;;;;;;4979821;28;20302;-75
2022/05/11 11:13:20;;;;;;;7.47;0.63;;;21.20;68.00;;;;;;4975626;28;20082;-75
2022/05/11 11:15:46;;;;;;;4.45;0.60;;;21.20;68.10;;;;;;4958216;28;20055;-75
2022/05/11 11:18:15;;;;;;;4.78;0.52;;;21.10;67.20;;;;;;4954748;29;20086;-73
2022/05/11 11:20:45;;;;;;;9.40;0.55;;;21.20;67.70;;;;;;4956009;28;20130;-76
2022/05/11 11:23:16;;;;;;;1.83;0.40;;;21.30;67.40;;;;;;4955745;28;20138;-74
2022/05/11 11:25:54;;;;;;;6.45;0.60;;;21.30;68.50;;;;;;4971130;28;20055;-76
2022/05/11 11:28:26;;;;;;;3.97;0.43;;;21.30;67.80;;;;;;4970963;28;20047;-74
2022/05/11 11:31:12;;;;;;;5.28;0.50;;;21.30;66.50;;;;;;4955451;28;20082;-74
2022/05/11 11:33:54;;;;;;;5.63;0.55;;;21.30;67.60;;;;;;4976747;28;20073;-75
2022/05/11 11:36:36;;;;;;;8.38;0.50;;;21.40;66.70;;;;;;4927626;29;20138;-75
2022/05/11 11:39:09;;;;;;;9.18;0.60;;;21.30;68.60;;;;;;4957232;28;20090;-77
2022/05/11 11:41:41;;;;;;;5.70;0.68;;;21.40;70.10;;;;;;4956532;28;20084;-76
2022/05/11 11:44:46;;;;;;;7.00;0.60;;;21.20;70.70;;;;;;4956232;28;20047;-75
2022/05/11 11:47:27;;;;;;;5.70;0.73;;;21.30;68.10;;;;;;4914651;29;20087;-75
2022/05/11 11:49:58;;;;;;;8.68;0.90;;;21.30;69.30;;;;;;4899258;29;20099;-76
2022/05/11 11:52:40;;;;;;;6.75;0.90;;;21.20;69.80;;;;;;4916050;29;20055;-76
2022/05/11 11:55:27;;;;;;;5.88;0.88;;;21.00;71.40;;;;;;4955800;28;20439;-75
2022/05/11 11:58:11;;;;;;;5.90;0.50;;;21.20;73.10;;;;;;4955283;29;20051;-75
2022/05/11 12:00:46;;;;;;;9.02;0.70;;;21.40;68.20;;;;;;4971953;28;20081;-75
2022/05/11 12:03:18;;;;;;;5.07;0.60;;;21.50;65.90;;;;;;4959705;28;20050;-77
2022/05/11 12:05:47;;;;;;;8.75;0.80;;;21.40;66.10;;;;;;4979603;28;20055;-74
2022/05/11 12:17:00;;;;;;;7.30;0.70;;;21.60;64.10;;;;;;4973697;28;20428;-74
2022/05/11 12:19:32;;;;;;;8.57;0.55;;;21.70;64.70;;;;;;4973399;28;20085;-75
2022/05/11 12:22:00;;;;;;;5.53;0.50;;;21.70;64.80;;;;;;4957166;28;20050;-75
2022/05/11 12:24:44;;;;;;;5.80;0.40;;;21.60;65.80;;;;;;4973426;28;20050;-74
2022/05/11 12:27:21;;;;;;;7.20;0.50;;;21.80;63.80;;;;;;4974049;28;20109;-75
2022/05/11 12:29:58;;;;;;;5.38;0.47;;;21.80;63.20;;;;;;4971599;28;20059;-75
2022/05/11 12:32:39;;;;;;;4.53;0.40;;;22.00;63.90;;;;;;4956482;28;20053;-74
2022/05/11 12:35:19;;;;;;;5.03;0.60;;;22.00;63.30;;;;;;4973865;28;20066;-75
2022/05/11 12:37:58;;;;;;;5.32;0.80;;;21.90;62.80;;;;;;4972912;28;20126;-75
2022/05/11 12:40:25;;;;;;;6.80;0.40;;;22.00;60.80;;;;;;4971832;28;20046;-75
2022/05/11 12:42:55;;;;;;;5.43;0.45;;;22.00;60.80;;;;;;4972785;28;20107;-75
2022/05/11 12:45:41;;;;;;;11.52;0.80;;;22.00;60.80;;;;;;4971241;28;20521;-77
2022/05/11 12:48:08;;;;;;;8.02;0.50;;;21.90;60.90;;;;;;4972170;28;20126;-74
2022/05/11 12:50:47;;;;;;;8.68;0.68;;;22.00;60.60;;;;;;4974410;28;20086;-75
2022/05/11 12:53:16;;;;;;;7.65;0.68;;;21.90;60.50;;;;;;4956414;28;20042;-74
2022/05/11 12:55:45;;;;;;;6.72;0.75;;;21.90;60.00;;;;;;4973649;28;20101;-76
2022/05/11 12:58:26;;;;;;;6.00;0.60;;;21.90;60.70;;;;;;4957853;28;20054;-75
2022/05/11 13:01:03;;;;;;;5.97;0.80;;;21.90;60.10;;;;;;4974482;28;20051;-74
2022/05/11 13:03:36;;;;;;;5.50;0.57;;;22.00;60.20;;;;;;4974361;28;20053;-77
2022/05/11 13:06:07;;;;;;;10.68;0.90;;;22.00;60.70;;;;;;4955037;28;20065;-74
2022/05/11 13:08:41;;;;;;;9.55;0.90;;;21.90;60.20;;;;;;4973861;28;20043;-75
2022/05/11 13:11:09;;;;;;;12.80;0.90;;;21.80;58.90;;;;;;4973354;28;20044;-77
2022/05/11 13:13:36;;;;;;;10.23;0.70;;;21.90;59.70;;;;;;4973546;28;20082;-74
2022/05/11 13:16:15;;;;;;;11.63;1.00;;;21.80;60.20;;;;;;4976614;28;20054;-76
2022/05/11 13:18:44;;;;;;;10.32;0.85;;;21.80;60.90;;;;;;4975473;28;20125;-73
2022/05/11 13:21:10;;;;;;;6.15;0.70;;;21.90;62.10;;;;;;4958993;28;20050;-75
2022/05/11 13:23:40;;;;;;;9.23;0.82;;;22.00;62.70;;;;;;4959264;28;20043;-74
2022/05/11 13:26:10;;;;;;;8.73;0.77;;;22.00;62.10;;;;;;4949421;28;20127;-76
2022/05/11 13:28:41;;;;;;;8.75;0.82;;;22.10;63.20;;;;;;4955696;29;20186;-76
2022/05/11 13:31:29;;;;;;;10.50;1.10;;;22.20;62.90;;;;;;4955188;29;20494;-76
2022/05/11 13:33:56;;;;;;;6.35;0.73;;;22.20;62.40;;;;;;4944981;29;20058;-75
2022/05/11 13:36:45;;;;;;;7.93;0.80;;;22.20;63.10;;;;;;4956126;29;20043;-74
2022/05/11 13:39:16;;;;;;;9.45;0.80;;;22.30;63.10;;;;;;4955538;29;20059;-76
2022/05/11 13:41:56;;;;;;;8.35;1.00;;;22.30;63.10;;;;;;4956040;28;20054;-75
2022/05/11 13:44:28;;;;;;;7.32;0.90;;;22.30;62.50;;;;;;4954060;28;20051;-76